Tiempo atmosférico en la estación meteorológica de Autilla del Pino, Palencia (874 m.)

Fecha
DESCASC
Temp. máxima en grados centígrados (hora)
DESCASC
Temp. mínima en grados centígrados (hora)
DESCASC
Temp. media en grados centígrados
DESCASC
Racha de viento máxima en m/sg (hora)
DESCASC
Velocidad máxima media en intervalos de 10 minutos(hora)
DESCASC
Precipitaciones diarias en mm
DESCASC
Precipitaciones de 00:00 a 06:00 en mm
DESCASC
Precipitaciones de 06:00 a 12:00 en mm
DESCASC
Precipitaciones de 12:00 a 18:00 en mm
DESCASC
Precipitaciones de 18:00 a 24:00 en mm
DESCASC
21-08-2017 36.3 (18:10) 14.1 (06:20) 25.2 8.06 (00:50) 6.67 (01:30) 0 0 0 0 0
20-08-2017 30.3 (16:20) 10.8 (07:40) 20.5 12.22 (01:00) 9.17 (01:00) 0 0 0 0 0
19-08-2017 28 (18:10) 13 (07:10) 20.5 11.67 (03:30) 8.89 (00:30) 0 0 0 0 0
18-08-2017 30.2 (18:00) 12.1 (07:20) 21.2 13.06 (00:40) 9.72 (22:40) 0 0 0 0 0
17-08-2017 33.1 (18:20) 13.2 (00:00) 23.1 9.17 (00:30) 7.22 (00:30) 0 0 0 0 0
16-08-2017 29.4 (18:20) 11.7 (00:00) 20.5 8.33 (23:10) 5.83 (23:59) 0 0 0 0 0
15-08-2017 30.8 (18:00) 16.1 (00:00) 23.4 12.22 (16:50) 7.5 (17:40) 0 0 0 0 0
14-08-2017 33.9 (16:40) 15.5 (06:20) 24.7 11.94 (15:40) 7.22 (21:20) 0 0 0 0 0
13-08-2017 32.3 (17:40) 12.1 (00:00) 22.2 13.89 (17:40) 6.39 (00:10) 0 0 0 0 0
12-08-2017 29.2 (17:10) 9.9 (00:00) 19.6 9.72 (23:50) 6.39 (01:10) 0 0 0 0 0
11-08-2017 25.2 (18:30) 8.9 (00:00) 17.1 9.72 (00:20) 7.22 (23:30) 0 0 0 0 0
10-08-2017 21.9 (18:40) 3.5 (00:00) 12.7 11.67 (22:30) 8.33 (22:30) 0 0 0 0 0
09-08-2017 21.3 (17:30) 8.1 (00:00) 14.7 11.39 (17:50) 8.89 (20:20) 0 0 0 0 0
08-08-2017 23.7 (19:20) 10.1 (00:00) 16.9 9.44 (23:59) 7.5 (23:59) 0 0 0 0 0
07-08-2017 29.4 (16:40) 11 (00:00) 20.2 11.39 (17:10) 8.61 (01:10) 0 0 0 0 0
06-08-2017 27 (17:50) 12.8 (00:00) 19.9 15.83 (09:40) 11.39 (09:40) 0 0 0 0 0
05-08-2017 29 (15:20) 13.6 (00:00) 21.3 17.5 (22:00) 12.78 (22:20) 0 0 0 0 0
04-08-2017 33.8 (18:00) 15.6 (00:00) 24.7 8.89 (23:50) 6.39 (23:50) 0 0 0 0 0
03-08-2017 32 (16:20) 15.6 (00:00) 23.8 10.83 (15:40) 6.67 (17:10) 0 0 0 0 0
02-08-2017 31.7 (19:00) 11.8 (00:00) 21.8 8.61 (19:10) 5.56 (00:40) 0 0 0 0 0
01-08-2017 29.3 (17:50) 13 (00:00) 21.1 9.44 (17:50) 6.11 (01:10) 0 0 0 0 0
31-07-2017 28.8 (16:50) 10.4 (00:00) 19.6 17.78 (17:50) 7.5 (18:50) 0 0 0 0 0
30-07-2017 30.7 (16:20) 14.2 (00:00) 22.5 13.89 (16:30) 9.17 (17:20) 0 0 0 0 0
29-07-2017 32.5 (18:10) 12.9 (00:00) 22.7 11.67 (20:50) 8.89 (20:50) 0 0 0 0 0
28-07-2017 31.9 (18:10) 12.3 (00:00) 22.1 9.17 (16:30) 6.11 (23:50) 0 0 0 0 0
27-07-2017 33 (18:20) 12.2 (00:00) 22.6 10.83 (17:00) 6.39 (20:30) 0 0 0 0 0
26-07-2017 30.2 (18:50) 9.8 (00:00) 20 8.89 (00:20) 6.39 (00:10) 0 0 0 0 0
25-07-2017 24.9 (18:30) 10.7 (00:00) 17.8 11.11 (09:50) 8.33 (09:50) 0 0 0 0 0
24-07-2017 28 (18:10) 11.4 (00:00) 19.7 12.5 (23:00) 9.44 (22:40) 0 0 0 0 0
23-07-2017 28.8 (18:40) 10.6 (00:00) 19.7 12.5 (18:50) 8.61 (23:20) 0 0 0 0 0

Gráficas

Temp. máximas Temp. mínimas Temp. medias Precipitaciones Rachas de viento máximas Velocidades máximas media en intervalos de 10 minutos

Datos horarios

Fecha y hora oficial Temperatura (ºC) Velocidad del viento (km/h) Dirección del viento Racha (km/h) Dirección de racha Precipitación (mm) Presión (hPa) Tendencia (hPa) Humedad (%)
2017-08-21 23:00:00 28.7 5 Nordeste 8 Norte 0 -- -- 29
2017-08-21 22:00:00 29 5 Norte 9 Norte 0 -- -- 29
2017-08-21 21:00:00 30.8 8 Norte 15 Norte 0 -- -- 27
2017-08-21 20:00:00 35.4 5 Oeste 23 Sur 0 -- -- 25
2017-08-21 19:00:00 35.3 6 Sur 27 Sudoeste 0 -- -- 25
2017-08-21 18:00:00 36 8 Oeste 24 Sudoeste 0 -- -- 25
2017-08-21 17:00:00 35.8 6 Sudoeste 21 Sudoeste 0 -- -- 26
2017-08-21 16:00:00 34.2 2 Sur 19 Nordeste 0 -- -- 28
2017-08-21 15:00:00 33.2 9 Norte 20 Norte 0 -- -- 29
2017-08-21 14:00:00 32.6 6 Este 23 Sudeste 0 -- -- 31
2017-08-21 13:00:00 30.2 4 Sudeste 15 Este 0 -- -- 34
2017-08-21 12:00:00 27.5 9 Sudeste 23 Este 0 -- -- 37
2017-08-21 11:00:00 24.4 15 Este 24 Este 0 -- -- 42
2017-08-21 10:00:00 21.5 17 Este 24 Este 0 -- -- 46
2017-08-21 09:00:00 18.3 16 Este 22 Este 0 -- -- 50
2017-08-21 08:00:00 15.7 16 Este 22 Este 0 -- -- 54
2017-08-21 07:00:00 14.8 19 Este 21 Este 0 -- -- 55
2017-08-21 06:00:00 14.6 15 Este 22 Este 0 -- -- 55
2017-08-21 05:00:00 15.4 19 Este 22 Este 0 -- -- 54
2017-08-21 04:00:00 16.1 16 Este 18 Este 0 -- -- 53
2017-08-21 03:00:00 16.8 16 Este 26 Este 0 -- -- 54
2017-08-21 02:00:00 18.1 23 Este 29 Este 0 -- -- 50
2017-08-21 01:00:00 19 24 Este 29 Este 0 -- -- 45
2017-08-21 00:00:00 20.2 23 Este 27 Este 0 -- -- 41
2017-08-20 23:00:00 21 15 Este 21 Este 0 -- -- 37
2017-08-20 22:00:00 22.4 12 Nordeste 21 Este 0 -- -- 35
2017-08-20 21:00:00 25.6 18 Este 35 Este 0 -- -- 31
2017-08-20 20:00:00 28.2 23 Nordeste 32 Nordeste 0 -- -- 30
2017-08-20 19:00:00 29.9 22 Este 32 Nordeste 0 -- -- 28
2017-08-20 18:00:00 29.6 21 Nordeste 34 Nordeste 0 -- -- 27
2017-08-20 17:00:00 30 20 Este 33 Este 0 -- -- 27
2017-08-20 16:00:00 29.3 20 Nordeste 33 Nordeste 0 -- -- 26
2017-08-20 15:00:00 28.2 16 Este 31 Este 0 -- -- 25
2017-08-20 14:00:00 26.8 18 Este 32 Este 0 -- -- 24
2017-08-20 13:00:00 25.2 22 Nordeste 33 Nordeste 0 -- -- 24
2017-08-20 12:00:00 23.3 23 Nordeste 32 Nordeste 0 -- -- 28
2017-08-20 11:00:00 19.7 17 Nordeste 25 Este 0 -- -- 40
2017-08-20 10:00:00 16.6 19 Este 27 Este 0 -- -- 46
2017-08-20 09:00:00 13.9 19 Este 24 Este 0 -- -- 65
2017-08-20 08:00:00 11.2 21 Este 27 Este 0 -- -- 84
2017-08-20 07:00:00 11.2 24 Este 31 Este 0 -- -- 85
2017-08-20 06:00:00 11.2 24 Este 30 Este 0 -- -- 87
2017-08-20 05:00:00 11.6 25 Este 35 Este 0 -- -- 85
2017-08-20 04:00:00 12.3 27 Este 34 Este 0 -- -- 86
2017-08-20 03:00:00 12.8 26 Este 40 Este 0 -- -- 87
2017-08-20 02:00:00 13.4 30 Este 43 Este 0 -- -- 86
2017-08-20 01:00:00 14.2 33 Este 44 Este 0 -- -- 84
2017-08-20 00:00:00 15.7 30 Este 38 Este 0 -- -- 78
2017-08-19 23:00:00 17.8 28 Este 39 Este 0 -- -- 65
2017-08-19 22:00:00 20 24 Nordeste 33 Nordeste 0 -- -- 52
2017-08-19 21:00:00 23.3 22 Nordeste 31 Nordeste 0 -- -- 40
2017-08-19 20:00:00 25.9 20 Nordeste 28 Nordeste 0 -- -- 36
2017-08-19 19:00:00 27.3 17 Nordeste 27 Nordeste 0 -- -- 37
2017-08-19 18:00:00 27.7 11 Nordeste 24 Nordeste 0 -- -- 39
2017-08-19 17:00:00 27.1 13 Nordeste 32 Nordeste 0 -- -- 41
2017-08-19 16:00:00 26.6 15 Nordeste 31 Nordeste 0 -- -- 42
2017-08-19 15:00:00 25.1 21 Nordeste 31 Nordeste 0 -- -- 47
2017-08-19 14:00:00 24.4 20 Nordeste 31 Nordeste 0 -- -- 51
2017-08-19 13:00:00 23.2 16 Nordeste 33 Este 0 -- -- 55
2017-08-19 12:00:00 21.1 25 Nordeste 39 Este 0 -- -- 62
2017-08-19 11:00:00 19.8 24 Este 36 Este 0 -- -- 70
2017-08-19 10:00:00 17.7 27 Nordeste 37 Este 0 -- -- 79
2017-08-19 09:00:00 15.5 28 Nordeste 37 Este 0 -- -- 90
2017-08-19 08:00:00 13.5 22 Este 30 Este 0 -- -- 98
2017-08-19 07:00:00 13.2 21 Este 32 Este 0 -- -- 97
2017-08-19 06:00:00 13.6 22 Este 30 Este 0 -- -- 95
2017-08-19 05:00:00 14.5 20 Este 34 Este 0 -- -- 91
2017-08-19 04:00:00 14.8 26 Este 42 Este 0 -- -- 91
2017-08-19 03:00:00 14.9 26 Este 35 Este 0 -- -- 91
2017-08-19 02:00:00 15.5 28 Este 37 Este 0 -- -- 89
2017-08-19 01:00:00 16.2 28 Nordeste 41 Nordeste 0 -- -- 87
2017-08-19 00:00:00 16.8 32 Este 46 Nordeste 0 -- -- 84
2017-08-18 23:00:00 17.5 33 Este 46 Este 0 -- -- 79
2017-08-18 22:00:00 20.4 29 Nordeste 40 Nordeste 0 -- -- 68
2017-08-18 21:00:00 22.7 24 Este 36 Nordeste 0 -- -- 58
2017-08-18 20:00:00 26 20 Este 36 Nordeste 0 -- -- 50
2017-08-18 19:00:00 26.9 27 Nordeste 38 Nordeste 0 -- -- 47
2017-08-18 18:00:00 29.8 11 Noroeste 24 Norte 0 -- -- 37
2017-08-18 17:00:00 29.1 7 Norte 19 Noroeste 0 -- -- 38
2017-08-18 16:00:00 28.8 9 Oeste 20 Noroeste 0 -- -- 39
2017-08-18 15:00:00 27 8 Norte 22 Noroeste 0 -- -- 42
2017-08-18 14:00:00 26.7 5 Oeste 23 Norte 0 -- -- 45
2017-08-18 13:00:00 25.7 8 Este 18 Sudeste 0 -- -- 51
2017-08-18 12:00:00 22.8 9 Nordeste 17 Norte 0 -- -- 62
2017-08-18 11:00:00 21.5 7 Norte 13 Norte 0 -- -- 66
2017-08-18 10:00:00 18.9 9 Este 13 Norte 0 -- -- 76
2017-08-18 09:00:00 15.7 13 Norte 17 Norte 0 -- -- 86
2017-08-18 08:00:00 13.3 5 Norte 13 Noroeste 0 -- -- 84
2017-08-18 07:00:00 13.9 4 Este 15 Nordeste 0 -- -- 81
2017-08-18 06:00:00 14.4 12 Nordeste 19 Nordeste 0 -- -- 75
2017-08-18 05:00:00 15.7 10 Este 17 Nordeste 0 -- -- 74
2017-08-18 04:00:00 16 13 Nordeste 14 Nordeste 0 -- -- 80
2017-08-18 03:00:00 16.7 10 Nordeste 13 Nordeste 0 -- -- 82
2017-08-18 02:00:00 18.7 13 Nordeste 21 Nordeste 0 -- -- 77
2017-08-18 01:00:00 19 10 Norte 47 Oeste 0 -- -- 70
2017-08-18 00:00:00 22.8 16 Este 19 Este 0 -- -- 45
2017-08-17 23:00:00 26 3 Nordeste 5 Norte 0 -- -- 36
2017-08-17 22:00:00 26.1 4 Noroeste 9 Noroeste 0 -- -- 36
2017-08-17 21:00:00 28.5 9 Noroeste 17 Noroeste 0 -- -- 33
2017-08-17 20:00:00 31 13 Noroeste 24 Noroeste 0 -- -- 31
2017-08-17 19:00:00 32.1 15 Noroeste 28 Noroeste 0 -- -- 31
2017-08-17 18:00:00 32.4 14 Noroeste 31 Oeste 0 -- -- 31
2017-08-17 17:00:00 31.9 15 Noroeste 27 Noroeste 0 -- -- 31
2017-08-17 16:00:00 31.8 6 Oeste 28 Oeste 0 -- -- 33
2017-08-17 15:00:00 30.9 13 Sudoeste 25 Oeste 0 -- -- 34
2017-08-17 14:00:00 30 5 Oeste 18 Sudoeste 0 -- -- 37
2017-08-17 13:00:00 27.9 3 Noroeste 14 Noroeste 0 -- -- 41
2017-08-17 12:00:00 26.3 6 Noroeste 14 Noroeste 0 -- -- 46
2017-08-17 11:00:00 23.5 8 Sudeste 22 Sudeste 0 -- -- 53
2017-08-17 10:00:00 20.6 10 Este 17 Este 0 -- -- 60
2017-08-17 09:00:00 17.1 12 Este 18 Este 0 -- -- 68
2017-08-17 08:00:00 14.8 15 Este 19 Este 0 -- -- 73
2017-08-17 07:00:00 14.4 16 Este 19 Este 0 -- -- 73
2017-08-17 06:00:00 13.5 7 Nordeste 18 Este 0 -- -- 74
2017-08-17 05:00:00 15 12 Este 20 Este 0 -- -- 73
2017-08-17 04:00:00 16.6 18 Este 23 Este 0 -- -- 68
2017-08-17 03:00:00 17.5 20 Este 29 Este 0 -- -- 70
2017-08-17 02:00:00 17.6 19 Este 28 Este 0 -- -- 73
2017-08-17 01:00:00 19.1 23 Este 33 Este 0 -- -- 68
2017-08-17 00:00:00 20.4 21 Este 30 Este 0 -- -- 62
2017-08-16 23:00:00 21.9 16 Este 27 Este 0 -- -- 47
2017-08-16 22:00:00 24.3 5 Nordeste 5 Nordeste 0 -- -- 32
2017-08-16 21:00:00 26.7 5 Norte 14 Noroeste 0 -- -- 31
2017-08-16 20:00:00 28.3 10 Noroeste 22 Norte 0 -- -- 30
2017-08-16 19:00:00 28.9 9 Noroeste 25 Noroeste 0 -- -- 28
2017-08-16 18:00:00 28.3 9 Noroeste 22 Noroeste 0 -- -- 28
2017-08-16 17:00:00 28.4 9 Noroeste 22 Noroeste 0 -- -- 29
2017-08-16 16:00:00 27.7 7 Oeste 20 Noroeste 0 -- -- 31
2017-08-16 15:00:00 26.3 9 Norte 27 Oeste 0 -- -- 37
2017-08-16 14:00:00 25 8 Norte 20 Norte 0 -- -- 41
2017-08-16 13:00:00 23.7 6 Nordeste 20 Noroeste 0 -- -- 48
2017-08-16 12:00:00 22.3 5 Este 15 Este 0 -- -- 58
2017-08-16 11:00:00 19.5 9 Este 19 Este 0 -- -- 68
2017-08-16 10:00:00 17.1 11 Este 17 Este 0 -- -- 80
2017-08-16 09:00:00 15 14 Este 18 Este 0 -- -- 90
2017-08-16 08:00:00 12 13 Nordeste 14 Nordeste 0 -- -- 99
2017-08-16 07:00:00 11.7 9 Este 16 Nordeste 0 -- -- 99
2017-08-16 06:00:00 12.5 12 Nordeste 15 Nordeste 0 -- -- 99
2017-08-16 05:00:00 13 8 Nordeste 18 Este 0 -- -- 98
2017-08-16 04:00:00 14.3 13 Este 22 Este 0 -- -- 95
2017-08-16 03:00:00 14.9 18 Este 25 Este 0 -- -- 95
2017-08-16 02:00:00 15 15 Este 22 Nordeste 0 -- -- 95
2017-08-16 01:00:00 15.4 17 Nordeste 28 Este 0 -- -- 93
2017-08-16 00:00:00 16.2 21 Nordeste 28 Nordeste 0 -- -- 90
2017-08-15 23:00:00 17.3 23 Este 31 Este 0 -- -- 85
2017-08-15 22:00:00 19 17 Nordeste 30 Nordeste 0 -- -- 75
2017-08-15 21:00:00 25 12 Oeste 33 Oeste 0 -- -- 32
2017-08-15 20:00:00 28.2 24 Oeste 36 Oeste 0 -- -- 32
2017-08-15 19:00:00 30 23 Oeste 39 Oeste 0 -- -- 33
2017-08-15 18:00:00 29.7 23 Oeste 39 Oeste 0 -- -- 33
2017-08-15 17:00:00 29.8 26 Oeste 44 Noroeste 0 -- -- 34
2017-08-15 16:00:00 30.2 19 Oeste 37 Oeste 0 -- -- 34
2017-08-15 15:00:00 29.1 24 Oeste 37 Oeste 0 -- -- 36
2017-08-15 14:00:00 29 18 Oeste 33 Oeste 0 -- -- 35
2017-08-15 13:00:00 27.1 13 Oeste 28 Oeste 0 -- -- 42
2017-08-15 12:00:00 25.8 10 Oeste 17 Oeste 0 -- -- 47
2017-08-15 11:00:00 24 6 Oeste 16 Oeste 0 -- -- 55
2017-08-15 10:00:00 21.6 9 Sudoeste 13 Sudoeste 0 -- -- 59
2017-08-15 09:00:00 18.5 9 Sudoeste 12 Sur 0 -- -- 65
2017-08-15 08:00:00 16.2 7 Sudoeste 9 Sudoeste 0 -- -- 68
2017-08-15 07:00:00 18.6 3 Sudoeste 7 Este 0 -- -- 60
2017-08-15 06:00:00 18.4 3 Noroeste 19 Sudoeste 0 -- -- 61
2017-08-15 05:00:00 19.9 18 Sudoeste 21 Sudoeste 0 -- -- 59
2017-08-15 04:00:00 19.3 15 Sudoeste 21 Sudoeste 0 -- -- 61
2017-08-15 03:00:00 19.5 15 Sur 21 Sur 0 -- -- 58
2017-08-15 02:00:00 18.8 12 Sudoeste 14 Sudoeste 0 -- -- 56
2017-08-15 01:00:00 21.9 9 Sudoeste 23 Sudoeste 0 -- -- 49
2017-08-15 00:00:00 22.4 17 Sur 22 Sur 0 -- -- 47
2017-08-14 23:00:00 24.1 13 Sur 23 Sur 0 -- -- 44
2017-08-14 22:00:00 25.8 15 Sur 37 Sur 0 -- -- 42
2017-08-14 21:00:00 28.2 19 Sur 32 Sur 0 -- -- 35
2017-08-14 20:00:00 30.3 22 Oeste 35 Oeste 0 -- -- 31
2017-08-14 19:00:00 31.7 20 Oeste 30 Oeste 0 -- -- 29
2017-08-14 18:00:00 33.4 23 Oeste 37 Oeste 0 -- -- 28
2017-08-14 17:00:00 32.8 15 Oeste 39 Oeste 0 -- -- 28
2017-08-14 16:00:00 32.8 19 Oeste 43 Oeste 0 -- -- 28
2017-08-14 15:00:00 32.3 19 Oeste 42 Oeste 0 -- -- 28
2017-08-14 14:00:00 31.6 15 Sudoeste 32 Sudoeste 0 -- -- 31
2017-08-14 13:00:00 30.5 14 Sudoeste 28 Sudoeste 0 -- -- 34
2017-08-14 12:00:00 28.4 14 Sudoeste 21 Sudoeste 0 -- -- 38
2017-08-14 11:00:00 24.7 7 Sur 19 Sur 0 -- -- 46
2017-08-14 10:00:00 22.1 6 Sudeste 13 Sudeste 0 -- -- 53
2017-08-14 09:00:00 19.8 5 Sudeste 14 Sudeste 0 -- -- 56
2017-08-14 08:00:00 16.7 8 Sudeste 15 Sudeste 0 -- -- 61
2017-08-14 07:00:00 16 13 Sudeste 14 Sudeste 0 -- -- 61
2017-08-14 06:00:00 17.1 12 Sudeste 15 Sudeste 0 -- -- 59
2017-08-14 05:00:00 18.1 13 Sudeste 17 Sudeste 0 -- -- 56
2017-08-14 04:00:00 18.6 15 Sudeste 18 Sudeste 0 -- -- 55
2017-08-14 03:00:00 19.2 14 Sudeste 19 Sudeste 0 -- -- 52
2017-08-14 02:00:00 20.2 15 Este 21 Este 0 -- -- 49
2017-08-14 01:00:00 20.8 16 Sudeste 19 Sudeste 0 -- -- 45
2017-08-14 00:00:00 21.1 14 Este 21 Este 0 -- -- 37
2017-08-13 23:00:00 24.7 6 Norte 8 Norte 0 -- -- 33
2017-08-13 22:00:00 25.5 7 Norte 8 Norte 0 -- -- 32
2017-08-13 21:00:00 27.4 7 Nordeste 14 Norte 0 -- -- 31
2017-08-13 20:00:00 30.1 6 Noroeste 22 Noroeste 0 -- -- 29
2017-08-13 19:00:00 31.2 8 Oeste 28 Noroeste 0 -- -- 29
2017-08-13 18:00:00 31.4 2 Noroeste 50 Sudoeste 0 -- -- 29
2017-08-13 17:00:00 31.2 3 Noroeste 25 Oeste 0 -- -- 30
2017-08-13 16:00:00 30.8 13 Noroeste 30 Noroeste 0 -- -- 31
2017-08-13 15:00:00 29.7 7 Oeste 28 Oeste 0 -- -- 32
2017-08-13 14:00:00 29 5 Sur 20 Este 0 -- -- 34
2017-08-13 13:00:00 26.6 10 Este 20 Este 0 -- -- 41
2017-08-13 12:00:00 24.7 13 Este 21 Este 0 -- -- 44
2017-08-13 11:00:00 21.6 12 Este 19 Sudeste 0 -- -- 48
2017-08-13 10:00:00 18.7 14 Este 29 Este 0 -- -- 52
2017-08-13 09:00:00 15.4 22 Este 29 Este 0 -- -- 57
2017-08-13 08:00:00 13 21 Este 26 Este 0 -- -- 58
2017-08-13 07:00:00 12.3 21 Este 25 Este 0 -- -- 60
2017-08-13 06:00:00 12.8 18 Este 24 Este 0 -- -- 60
2017-08-13 05:00:00 14 21 Este 24 Este 0 -- -- 61
2017-08-13 04:00:00 15 18 Este 28 Este 0 -- -- 61
2017-08-13 03:00:00 15.7 22 Este 28 Este 0 -- -- 61
2017-08-13 02:00:00 15.9 18 Este 29 Este 0 -- -- 62
2017-08-13 01:00:00 17.9 22 Este 32 Este 0 -- -- 57
2017-08-13 00:00:00 19.3 21 Este 35 Este 0 -- -- 52
2017-08-12 23:00:00 20.1 18 Este 22 Este 0 -- -- 48
2017-08-12 22:00:00 21.1 15 Nordeste 22 Nordeste 0 -- -- 34
2017-08-12 21:00:00 24.7 8 Nordeste 13 Nordeste 0 -- -- 28
2017-08-12 20:00:00 28 5 Nordeste 17 Nordeste 0 -- -- 27
2017-08-12 19:00:00 28.4 9 Nordeste 20 Nordeste 0 -- -- 26
2017-08-12 18:00:00 27.8 9 Norte 19 Norte 0 -- -- 27
2017-08-12 17:00:00 27.8 9 Noroeste 17 Norte 0 -- -- 27
2017-08-12 16:00:00 27.8 3 Sur 24 Oeste 0 -- -- 28
2017-08-12 15:00:00 26.1 3 Noroeste 19 Noroeste 0 -- -- 31
2017-08-12 14:00:00 25.1 5 Norte 21 Nordeste 0 -- -- 31
2017-08-12 13:00:00 23.9 6 Nordeste 15 Nordeste 0 -- -- 33
2017-08-12 12:00:00 22.4 8 Este 17 Este 0 -- -- 34
2017-08-12 11:00:00 18.7 9 Este 16 Este 0 -- -- 44
2017-08-12 10:00:00 15.9 15 Este 21 Este 0 -- -- 49
2017-08-12 09:00:00 13.3 15 Este 20 Este 0 -- -- 58
2017-08-12 08:00:00 10.6 15 Este 19 Este 0 -- -- 68
2017-08-12 07:00:00 10.3 14 Este 21 Este 0 -- -- 67
2017-08-12 06:00:00 11.2 18 Este 21 Este 0 -- -- 61
2017-08-12 05:00:00 12 18 Este 25 Este 0 -- -- 62
2017-08-12 04:00:00 12.5 18 Este 23 Este 0 -- -- 71
2017-08-12 03:00:00 12.8 20 Este 23 Este 0 -- -- 71
2017-08-12 02:00:00 13.5 20 Este 32 Este 0 -- -- 68
2017-08-12 01:00:00 14.7 21 Este 32 Este 0 -- -- 64
2017-08-12 00:00:00 15.7 22 Este 35 Este 0 -- -- 61
2017-08-11 23:00:00 17.7 23 Este 31 Este 0 -- -- 49
2017-08-11 22:00:00 18.9 13 Este 18 Este 0 -- -- 41
2017-08-11 21:00:00 21.3 13 Este 22 Nordeste 0 -- -- 34
2017-08-11 20:00:00 23.7 16 Nordeste 25 Nordeste 0 -- -- 30
2017-08-11 19:00:00 24.7 11 Nordeste 26 Nordeste 0 -- -- 30
2017-08-11 18:00:00 24.4 15 Nordeste 25 Nordeste 0 -- -- 31
2017-08-11 17:00:00 23.9 13 Nordeste 26 Norte 0 -- -- 32
2017-08-11 16:00:00 22.7 11 Nordeste 32 Nordeste 0 -- -- 36
2017-08-11 15:00:00 22.2 14 Nordeste 23 Nordeste 0 -- -- 38
2017-08-11 14:00:00 20.3 13 Nordeste 24 Nordeste 0 -- -- 44
2017-08-11 13:00:00 19.1 10 Nordeste 22 Nordeste 0 -- -- 47
2017-08-11 12:00:00 16.5 13 Nordeste 25 Nordeste 0 -- -- 54
2017-08-11 11:00:00 15.2 18 Nordeste 28 Este 0 -- -- 65
2017-08-11 10:00:00 13.8 17 Este 23 Este 0 -- -- 74
2017-08-11 09:00:00 10.7 13 Este 18 Este 0 -- -- 82
2017-08-11 08:00:00 9.6 14 Este 20 Este 0 -- -- 86
2017-08-11 07:00:00 9 14 Este 27 Este 0 -- -- 87
2017-08-11 06:00:00 9.4 20 Este 30 Este 0 -- -- 84
2017-08-11 05:00:00 9.3 21 Este 31 Este 0 -- -- 83
2017-08-11 04:00:00 9.7 23 Este 33 Este 0 -- -- 81
2017-08-11 03:00:00 10 25 Este 34 Este 0 -- -- 78
2017-08-11 02:00:00 10.1 22 Este 34 Este 0 -- -- 79
2017-08-11 01:00:00 10.6 22 Este 35 Este 0 -- -- 75
2017-08-11 00:00:00 11.5 25 Este 37 Este 0 -- -- 70
2017-08-10 23:00:00 12.4 28 Este 42 Este 0 -- -- 64
2017-08-10 22:00:00 14 29 Este 39 Este 0 -- -- 57
2017-08-10 21:00:00 16.7 26 Nordeste 35 Este 0 -- -- 48
2017-08-10 20:00:00 20.7 13 Nordeste 23 Este 0 -- -- 40
2017-08-10 19:00:00 21.2 0 Calma 23 Nordeste 0 -- -- 40
2017-08-10 18:00:00 20.9 15 Nordeste 25 Nordeste 0 -- -- 40
2017-08-10 17:00:00 20.8 15 Nordeste 28 Este 0 -- -- 41
2017-08-10 16:00:00 20.1 14 Nordeste 32 Este 0 -- -- 41
2017-08-10 15:00:00 18.9 17 Nordeste 32 Este 0 -- -- 44
2017-08-10 14:00:00 18.8 22 Este 41 Este 0 -- -- 46
2017-08-10 13:00:00 17.2 20 Nordeste 37 Este 0 -- -- 47
2017-08-10 12:00:00 16.1 22 Nordeste 38 Nordeste 0 -- -- 54
2017-08-10 11:00:00 13.9 15 Nordeste 26 Este 0 -- -- 65
2017-08-10 10:00:00 11.5 7 Norte 13 Nordeste 0 -- -- 77
2017-08-10 09:00:00 8.8 8 Nordeste 12 Nordeste 0 -- -- 88
2017-08-10 08:00:00 5.3 8 Nordeste 10 Nordeste 0 -- -- 99
2017-08-10 07:00:00 4.3 6 Norte 9 Norte 0 -- -- 99
2017-08-10 06:00:00 6.1 9 Nordeste 22 Este 0 -- -- 93
2017-08-10 05:00:00 7.9 15 Este 23 Este 0 -- -- 90
2017-08-10 04:00:00 7.7 13 Este 21 Este 0 -- -- 88
2017-08-10 03:00:00 7.7 15 Este 26 Nordeste 0 -- -- 85
2017-08-10 02:00:00 8.4 18 Este 30 Este 0 -- -- 84
2017-08-10 01:00:00 8.8 21 Este 33 Este 0 -- -- 84
2017-08-10 00:00:00 9.5 22 Este 32 Este 0 -- -- 80
2017-08-09 23:00:00 10.3 19 Este 35 Nordeste 0 -- -- 69
2017-08-09 22:00:00 11.4 22 Nordeste 41 Este 0 -- -- 66
2017-08-09 21:00:00 13.7 26 Este 40 Este 0 -- -- 54
2017-08-09 20:00:00 16.4 28 Nordeste 41 Nordeste 0 -- -- 45
2017-08-09 19:00:00 18.8 25 Nordeste 41 Este 0 -- -- 42
2017-08-09 18:00:00 18.8 28 Nordeste 41 Nordeste 0 -- -- 41
2017-08-09 17:00:00 18.8 23 Nordeste 34 Nordeste 0 -- -- 41
2017-08-09 16:00:00 20.2 12 Nordeste 29 Nordeste 0 -- -- 43
2017-08-09 15:00:00 20.1 10 Norte 24 Norte 0 -- -- 43
2017-08-09 14:00:00 17.9 10 Norte 24 Norte 0 -- -- 48
2017-08-09 13:00:00 17.3 15 Norte 26 Norte 0 -- -- 54
2017-08-09 12:00:00 16 14 Nordeste 26 Nordeste 0 -- -- 61
2017-08-09 11:00:00 14.1 15 Nordeste 24 Nordeste 0 -- -- 70
2017-08-09 10:00:00 12 13 Nordeste 20 Nordeste 0 -- -- 80
2017-08-09 09:00:00 10.4 13 Nordeste 22 Nordeste 0 -- -- 88
2017-08-09 08:00:00 8.5 15 Nordeste 24 Nordeste 0 -- -- 97
2017-08-09 07:00:00 9.2 18 Nordeste 26 Este 0 -- -- 94
2017-08-09 06:00:00 9.4 18 Este 27 Este 0 -- -- 92
2017-08-09 05:00:00 9.5 18 Este 31 Este 0 -- -- 92
2017-08-09 04:00:00 9.4 22 Este 33 Este 0 -- -- 93
2017-08-09 03:00:00 9.6 25 Este 37 Este 0 -- -- 93
2017-08-09 02:00:00 10.2 25 Este 35 Nordeste 0 -- -- 91
2017-08-09 01:00:00 10.8 24 Nordeste 35 Este 0 -- -- 89
2017-08-09 00:00:00 11.7 27 Este 34 Este 0 -- -- 84
2017-08-08 23:00:00 13.3 25 Este 33 Nordeste 0 -- -- 74
2017-08-08 22:00:00 15.8 21 Nordeste 30 Nordeste 0 -- -- 61
2017-08-08 21:00:00 20.6 10 Noroeste 19 Nordeste 0 -- -- 34
2017-08-08 20:00:00 23.2 3 Norte 18 Norte 0 -- -- 31
2017-08-08 19:00:00 22.8 10 Noroeste 19 Noroeste 0 -- -- 32
2017-08-08 18:00:00 22.6 5 Nordeste 20 Noroeste 0 -- -- 34
2017-08-08 17:00:00 22.1 7 Noroeste 22 Noroeste 0 -- -- 35
2017-08-08 16:00:00 21.1 6 Noroeste 25 Noroeste 0 -- -- 37
2017-08-08 15:00:00 20.8 4 Sudoeste 25 Oeste 0 -- -- 41
2017-08-08 14:00:00 19.5 4 Noroeste 19 Noroeste 0 -- -- 46
2017-08-08 13:00:00 18.1 8 Noroeste 16 Noroeste 0 -- -- 54
2017-08-08 12:00:00 17 4 Nordeste 15 Norte 0 -- -- 60
2017-08-08 11:00:00 15.2 8 Norte 19 Nordeste 0 -- -- 68
2017-08-08 10:00:00 14.5 13 Nordeste 21 Nordeste 0 -- -- 72
2017-08-08 09:00:00 11.9 14 Nordeste 22 Este 0 -- -- 88
2017-08-08 08:00:00 11.1 14 Nordeste 19 Este 0 -- -- 92
2017-08-08 07:00:00 10.8 12 Este 15 Este 0 -- -- 95
2017-08-08 06:00:00 10.9 8 Nordeste 13 Nordeste 0 -- -- 95
2017-08-08 05:00:00 10.3 8 Nordeste 15 Nordeste 0 -- -- 95
2017-08-08 04:00:00 11.4 9 Nordeste 15 Nordeste 0 -- -- 91
2017-08-08 03:00:00 12.6 11 Nordeste 23 Nordeste 0 -- -- 89
2017-08-08 02:00:00 12.4 12 Nordeste 22 Este 0 -- -- 91
2017-08-08 01:00:00 12.9 20 Nordeste 27 Nordeste 0 -- -- 91
2017-08-08 00:00:00 13.8 20 Nordeste 36 Nordeste 0 -- -- 90
2017-08-07 23:00:00 15.6 23 Este 35 Este 0 -- -- 81
2017-08-07 22:00:00 18.4 20 Nordeste 29 Nordeste 0 -- -- 61
2017-08-07 21:00:00 24.5 18 Noroeste 30 Noroeste 0 -- -- 33
2017-08-07 20:00:00 25.7 22 Oeste 32 Oeste 0 -- -- 26
2017-08-07 19:00:00 26.4 23 Oeste 35 Oeste 0 -- -- 27
2017-08-07 18:00:00 26.6 17 Oeste 41 Oeste 0 -- -- 28
2017-08-07 17:00:00 28.9 26 Oeste 37 Oeste 0 -- -- 26
2017-08-07 16:00:00 27.3 22 Oeste 37 Noroeste 0 -- -- 36
2017-08-07 15:00:00 28.1 18 Oeste 33 Oeste 0 -- -- 40
2017-08-07 14:00:00 26.7 8 Oeste 22 Noroeste 0 -- -- 44
2017-08-07 13:00:00 24.9 12 Noroeste 19 Noroeste 0 -- -- 48
2017-08-07 12:00:00 23.4 3 Noroeste 12 Oeste 0 -- -- 54
2017-08-07 11:00:00 20.9 5 Este 18 Este 0 -- -- 62
2017-08-07 10:00:00 17.6 13 Este 24 Este 0 -- -- 75
2017-08-07 09:00:00 14 18 Este 24 Este 0 -- -- 91
2017-08-07 08:00:00 11.7 18 Este 22 Este 0 -- -- 99
2017-08-07 07:00:00 11 15 Este 25 Este 0 -- -- 99
2017-08-07 06:00:00 11.4 18 Este 27 Este 0 -- -- 99
2017-08-07 05:00:00 11.7 22 Este 31 Este 0 -- -- 98
2017-08-07 04:00:00 12 24 Este 31 Este 0 -- -- 97
2017-08-07 03:00:00 12.5 22 Este 34 Este 0 -- -- 94
2017-08-07 02:00:00 12.9 27 Este 39 Este 0 -- -- 92
2017-08-07 01:00:00 13.1 30 Este 39 Este 0 -- -- 89
2017-08-07 00:00:00 13.9 27 Este 39 Nordeste 0 -- -- 85
2017-08-06 23:00:00 14.8 28 Nordeste 42 Nordeste 0 -- -- 78
2017-08-06 22:00:00 17.3 27 Nordeste 40 Nordeste 0 -- -- 64
2017-08-06 21:00:00 21.1 26 Nordeste 36 Nordeste 0 -- -- 49
2017-08-06 20:00:00 24.5 27 Nordeste 36 Este 0 -- -- 41
2017-08-06 19:00:00 26.4 23 Nordeste 37 Este 0 -- -- 39
2017-08-06 18:00:00 27 22 Este 38 Nordeste 0 -- -- 39
2017-08-06 17:00:00 26.5 23 Nordeste 36 Este 0 -- -- 40
2017-08-06 16:00:00 25.5 24 Nordeste 41 Nordeste 0 -- -- 41
2017-08-06 15:00:00 23.3 30 Nordeste 43 Nordeste 0 -- -- 45
2017-08-06 14:00:00 21.6 28 Este 45 Nordeste 0 -- -- 51
2017-08-06 13:00:00 18.9 32 Nordeste 48 Este 0 -- -- 60
2017-08-06 12:00:00 17.4 35 Nordeste 50 Este 0 -- -- 66
2017-08-06 11:00:00 16 35 Nordeste 48 Este 0 -- -- 72
2017-08-06 10:00:00 15.3 39 Este 57 Este 0 -- -- 78
2017-08-06 09:00:00 13.4 38 Nordeste 51 Nordeste 0 -- -- 87
2017-08-06 08:00:00 13.3 35 Nordeste 51 Este 0 -- -- 89
2017-08-06 07:00:00 13.5 35 Este 51 Nordeste 0 -- -- 88
2017-08-06 06:00:00 13.6 36 Este 49 Este 0 -- -- 89
2017-08-06 05:00:00 13.6 31 Este 50 Este 0 -- -- 89
2017-08-06 04:00:00 13.3 36 Este 53 Este 0 -- -- 90
2017-08-06 03:00:00 13 38 Nordeste 54 Este 0 -- -- 89
2017-08-06 02:00:00 13.2 37 Nordeste 54 Nordeste 0 -- -- 88
2017-08-06 01:00:00 13.2 32 Nordeste 53 Nordeste 0 -- -- 87
2017-08-06 00:00:00 13.6 38 Nordeste 57 Nordeste 0 -- -- 85
2017-08-05 23:00:00 14.3 45 Nordeste 60 Este 0 -- -- 82
2017-08-05 22:00:00 15.7 42 Este 63 Este 0 -- -- 76
2017-08-05 21:00:00 17.9 39 Este 55 Este 0 -- -- 67
2017-08-05 20:00:00 20.5 39 Nordeste 48 Nordeste 0 -- -- 57
2017-08-05 19:00:00 24.1 34 Nordeste 46 Nordeste 0 -- -- 48
2017-08-05 18:00:00 26.4 28 Nordeste 43 Nordeste 0 -- -- 43
2017-08-05 17:00:00 27.5 31 Nordeste 42 Nordeste 0 -- -- 43
2017-08-05 16:00:00 28.2 27 Nordeste 40 Nordeste 0 -- -- 44
2017-08-05 15:00:00 28.1 13 Nordeste 36 Nordeste 0 -- -- 44
2017-08-05 14:00:00 27.6 16 Nordeste 30 Este 0 -- -- 48
2017-08-05 13:00:00 26.4 19 Nordeste 31 Este 0 -- -- 52
2017-08-05 12:00:00 25.2 14 Este 32 Nordeste 0 -- -- 58
2017-08-05 11:00:00 22.7 20 Este 30 Nordeste 0 -- -- 68
2017-08-05 10:00:00 20.3 19 Nordeste 24 Nordeste 0 -- -- 78
2017-08-05 09:00:00 18.2 18 Este 24 Nordeste 0 -- -- 90
2017-08-05 08:00:00 15.4 14 Nordeste 18 Nordeste 0 -- -- 99
2017-08-05 07:00:00 14.7 10 Nordeste 12 Nordeste 0 -- -- 99
2017-08-05 06:00:00 15 8 Este 9 Este 0 -- -- 99
2017-08-05 05:00:00 16.2 8 Este 15 Este 0 -- -- 98
2017-08-05 04:00:00 17.3 13 Este 19 Este 0 -- -- 95
2017-08-05 03:00:00 17.8 14 Este 17 Este 0 -- -- 95
2017-08-05 02:00:00 18.4 11 Nordeste 18 Nordeste 0 -- -- 92
2017-08-05 01:00:00 19.6 15 Nordeste 31 Nordeste 0 -- -- 88
2017-08-05 00:00:00 21.6 21 Nordeste 32 Nordeste 0 -- -- 78
2017-08-04 23:00:00 27.6 18 Oeste 28 Oeste 0 -- -- 35
2017-08-04 22:00:00 28.2 18 Oeste 27 Oeste 0 -- -- 34
2017-08-04 21:00:00 31.6 20 Oeste 29 Oeste 0 -- -- 32
2017-08-04 20:00:00 31.9 15 Oeste 28 Noroeste 0 -- -- 34
2017-08-04 19:00:00 33.5 17 Oeste 27 Noroeste 0 -- -- 34
2017-08-04 18:00:00 33 14 Oeste 28 Oeste 0 -- -- 35
2017-08-04 17:00:00 33.1 12 Oeste 28 Oeste 0 -- -- 37
2017-08-04 16:00:00 32.2 11 Noroeste 26 Oeste 0 -- -- 40
2017-08-04 15:00:00 30.5 12 Noroeste 28 Oeste 0 -- -- 43
2017-08-04 14:00:00 29.1 13 Oeste 29 Oeste 0 -- -- 46
2017-08-04 13:00:00 27.7 9 Oeste 20 Oeste 0 -- -- 53
2017-08-04 12:00:00 25.2 8 Oeste 21 Oeste 0 -- -- 61
2017-08-04 11:00:00 23.2 12 Oeste 22 Noroeste 0 -- -- 67
2017-08-04 10:00:00 22 10 Oeste 17 Oeste 0 -- -- 72
2017-08-04 09:00:00 20.3 13 Oeste 17 Oeste 0 -- -- 77
2017-08-04 08:00:00 17.1 10 Sudoeste 12 Sudoeste 0 -- -- 87
2017-08-04 07:00:00 16.1 8 Oeste 15 Oeste 0 -- -- 86
2017-08-04 06:00:00 17.8 13 Oeste 17 Oeste 0 -- -- 80
2017-08-04 05:00:00 18.1 15 Oeste 17 Noroeste 0 -- -- 76
2017-08-04 04:00:00 18.1 12 Noroeste 13 Noroeste 0 -- -- 72
2017-08-04 03:00:00 18.7 12 Noroeste 17 Noroeste 0 -- -- 71
2017-08-04 02:00:00 20.2 14 Noroeste 25 Noroeste 0 -- -- 61
2017-08-04 01:00:00 22.6 19 Noroeste 25 Noroeste 0 -- -- 51
2017-08-04 00:00:00 24 16 Noroeste 27 Oeste 0 -- -- 45
2017-08-03 23:00:00 25.4 18 Oeste 26 Oeste 0 -- -- 44
2017-08-03 22:00:00 26 16 Oeste 24 Oeste 0 -- -- 40
2017-08-03 21:00:00 29 17 Oeste 27 Oeste 0 -- -- 38
2017-08-03 20:00:00 30.5 16 Oeste 34 Oeste 0 -- -- 36
2017-08-03 19:00:00 31.1 22 Oeste 34 Oeste 0 -- -- 36
2017-08-03 18:00:00 31.1 23 Oeste 39 Oeste 0 -- -- 37
2017-08-03 17:00:00 30.9 19 Oeste 38 Oeste 0 -- -- 37
2017-08-03 16:00:00 31.2 19 Oeste 39 Oeste 0 -- -- 31
2017-08-03 15:00:00 30.8 15 Sudoeste 30 Oeste 0 -- -- 30
2017-08-03 14:00:00 28.5 14 Oeste 29 Oeste 0 -- -- 35
2017-08-03 13:00:00 27.5 8 Sudoeste 19 Sudoeste 0 -- -- 39
2017-08-03 12:00:00 26.1 8 Sur 17 Sur 0 -- -- 41
2017-08-03 11:00:00 23.3 5 Sudoeste 13 Oeste 0 -- -- 47
2017-08-03 10:00:00 21.4 8 Oeste 16 Oeste 0 -- -- 51
2017-08-03 09:00:00 18.7 14 Sudoeste 18 Sudoeste 0 -- -- 53
2017-08-03 08:00:00 17.6 10 Oeste 16 Oeste 0 -- -- 61
2017-08-03 07:00:00 15.7 13 Oeste 16 Oeste 0 -- -- 58
2017-08-03 06:00:00 16.9 14 Oeste 19 Oeste 0 -- -- 51
2017-08-03 05:00:00 17.3 16 Oeste 18 Oeste 0 -- -- 46
2017-08-03 04:00:00 17.6 14 Oeste 17 Noroeste 0 -- -- 42
2017-08-03 03:00:00 18.3 15 Noroeste 22 Oeste 0 -- -- 37
2017-08-03 02:00:00 20.8 20 Oeste 25 Oeste 0 -- -- 31
2017-08-03 01:00:00 22.6 19 Oeste 24 Oeste 0 -- -- 28
2017-08-03 00:00:00 22.2 17 Oeste 21 Oeste 0 -- -- 29
2017-08-02 23:00:00 23.3 8 Oeste 14 Oeste 0 -- -- 27
2017-08-02 22:00:00 23.8 11 Oeste 24 Oeste 0 -- -- 27
2017-08-02 21:00:00 28.7 16 Oeste 28 Oeste 0 -- -- 26
2017-08-02 20:00:00 30.3 15 Noroeste 31 Oeste 0 -- -- 26
2017-08-02 19:00:00 31.1 10 Oeste 26 Oeste 0 -- -- 27
2017-08-02 18:00:00 30.8 4 Nordeste 21 Sudoeste 0 -- -- 27
2017-08-02 17:00:00 29.7 8 Oeste 23 Oeste 0 -- -- 27
2017-08-02 16:00:00 29.8 4 Sur 26 Noroeste 0 -- -- 29
2017-08-02 15:00:00 28.7 11 Oeste 19 Oeste 0 -- -- 30
2017-08-02 14:00:00 27.1 7 Oeste 19 Oeste 0 -- -- 33
2017-08-02 13:00:00 25.5 7 Noroeste 18 Noroeste 0 -- -- 35
2017-08-02 12:00:00 24.6 7 Noroeste 20 Norte 0 -- -- 37
2017-08-02 11:00:00 21.5 2 Oeste 12 Norte 0 -- -- 58
2017-08-02 10:00:00 19.3 3 Este 9 Este 0 -- -- 73
2017-08-02 09:00:00 15.1 5 Norte 9 Noroeste 0 -- -- 96
2017-08-02 08:00:00 12.7 2 Sudeste 12 Sudeste 0 -- -- 99
2017-08-02 07:00:00 12.6 10 Sudeste 14 Este 0 -- -- 99
2017-08-02 06:00:00 13.1 12 Este 15 Este 0 -- -- 99
2017-08-02 05:00:00 12.8 12 Nordeste 14 Nordeste 0 -- -- 99
2017-08-02 04:00:00 13.7 10 Nordeste 15 Este 0 -- -- 98
2017-08-02 03:00:00 14.1 12 Nordeste 14 Nordeste 0 -- -- 98
2017-08-02 02:00:00 15.4 12 Este 16 Nordeste 0 -- -- 93
2017-08-02 01:00:00 16.2 14 Nordeste 26 Nordeste 0 -- -- 89
2017-08-02 00:00:00 18 15 Nordeste 21 Nordeste 0 -- -- 79
2017-08-01 23:00:00 21.2 14 Oeste 18 Oeste 0 -- -- 34
2017-08-01 22:00:00 22.5 9 Oeste 20 Oeste 0 -- -- 31
2017-08-01 21:00:00 26.3 16 Oeste 25 Oeste 0 -- -- 28
2017-08-01 20:00:00 27.8 17 Oeste 28 Oeste 0 -- -- 29
2017-08-01 19:00:00 28.4 15 Oeste 28 Oeste 0 -- -- 29
2017-08-01 18:00:00 28.4 8 Oeste 34 Sudoeste 0 -- -- 30
2017-08-01 17:00:00 27.7 10 Oeste 26 Oeste 0 -- -- 34
2017-08-01 16:00:00 26.8 5 Norte 25 Sur 0 -- -- 37
2017-08-01 15:00:00 25.9 11 Sudoeste 23 Sudoeste 0 -- -- 37
2017-08-01 14:00:00 24.6 6 Noroeste 17 Sur 0 -- -- 43
2017-08-01 13:00:00 23.7 3 Sudoeste 19 Sur 0 -- -- 46
2017-08-01 12:00:00 22 5 Este 15 Este 0 -- -- 55
2017-08-01 11:00:00 19 9 Este 16 Este 0 -- -- 67
2017-08-01 10:00:00 17.7 12 Este 20 Nordeste 0 -- -- 78
2017-08-01 09:00:00 15.1 14 Nordeste 17 Este 0 -- -- 91
2017-08-01 08:00:00 13.4 12 Este 17 Este 0 -- -- 99
2017-08-01 07:00:00 13.1 12 Este 15 Este 0 -- -- 99
2017-08-01 06:00:00 13.4 10 Nordeste 14 Este 0 -- -- 99
2017-08-01 05:00:00 13.9 9 Nordeste 21 Este 0 -- -- 99
2017-08-01 04:00:00 14.4 13 Nordeste 20 Este 0 -- -- 98
2017-08-01 03:00:00 15.2 13 Este 22 Este 0 -- -- 91
2017-08-01 02:00:00 15.5 15 Este 26 Este 0 -- -- 89
2017-08-01 01:00:00 16 20 Este 26 Este 0 -- -- 85
2017-08-01 00:00:00 17.6 13 Este 39 Este 0 -- -- 76
2017-07-31 23:00:00 19.5 9 Norte 17 Noroeste 0 -- -- 41
2017-07-31 22:00:00 20.5 14 Noroeste 22 Noroeste 0 -- -- 37
2017-07-31 21:00:00 21.5 17 Noroeste 29 Noroeste 0 -- -- 37
2017-07-31 20:00:00 22.3 22 Noroeste 32 Noroeste 0 -- -- 36
2017-07-31 19:00:00 24 23 Noroeste 35 Noroeste 0 -- -- 41
2017-07-31 18:00:00 26.6 18 Oeste 64 Oeste 0 -- -- 30
2017-07-31 17:00:00 27.4 14 Oeste 29 Oeste 0 -- -- 30
2017-07-31 16:00:00 26.8 13 Oeste 30 Oeste 0 -- -- 32
2017-07-31 15:00:00 25.3 11 Noroeste 41 Oeste 0 -- -- 37
2017-07-31 14:00:00 24.3 9 Noroeste 26 Noroeste 0 -- -- 41
2017-07-31 13:00:00 23.8 9 Noroeste 18 Oeste 0 -- -- 47
2017-07-31 12:00:00 21.5 6 Este 19 Este 0 -- -- 54
2017-07-31 11:00:00 18.2 14 Este 19 Este 0 -- -- 67
2017-07-31 10:00:00 16.6 11 Nordeste 17 Nordeste 0 -- -- 73
2017-07-31 09:00:00 14 10 Nordeste 25 Este 0 -- -- 85
2017-07-31 08:00:00 11.7 20 Este 30 Este 0 -- -- 93
2017-07-31 07:00:00 10.5 13 Nordeste 21 Este 0 -- -- 97
2017-07-31 06:00:00 11.5 16 Nordeste 22 Este 0 -- -- 96
2017-07-31 05:00:00 12.3 20 Este 27 Este 0 -- -- 95
2017-07-31 04:00:00 12.7 22 Este 31 Este 0 -- -- 95
2017-07-31 03:00:00 13.2 24 Este 33 Este 0 -- -- 94
2017-07-31 02:00:00 13.8 25 Este 33 Este 0 -- -- 94
2017-07-31 01:00:00 14.7 25 Este 33 Este 0 -- -- 90
2017-07-31 00:00:00 15.9 20 Nordeste 27 Nordeste 0 -- -- 82
2017-07-30 23:00:00 18.9 17 Norte 27 Nordeste 0 -- -- 44
2017-07-30 22:00:00 22.4 10 Noroeste 20 Oeste 0 -- -- 31
2017-07-30 21:00:00 26.2 16 Oeste 33 Oeste 0 -- -- 29
2017-07-30 20:00:00 27.6 22 Oeste 39 Oeste 0 -- -- 27
2017-07-30 19:00:00 29.1 27 Oeste 47 Oeste 0 -- -- 25
2017-07-30 18:00:00 30.2 27 Oeste 44 Oeste 0 -- -- 25
2017-07-30 17:00:00 30.1 32 Oeste 50 Oeste 0 -- -- 27
2017-07-30 16:00:00 29.7 25 Oeste 40 Oeste 0 -- -- 28
2017-07-30 15:00:00 28.9 24 Oeste 46 Oeste 0 -- -- 31
2017-07-30 14:00:00 27.4 21 Oeste 35 Oeste 0 -- -- 34
2017-07-30 13:00:00 26.2 18 Oeste 30 Oeste 0 -- -- 41
2017-07-30 12:00:00 23.1 13 Oeste 27 Oeste 0 -- -- 52
2017-07-30 11:00:00 21.1 12 Oeste 21 Oeste 0 -- -- 58
2017-07-30 10:00:00 19.3 13 Oeste 21 Oeste 0 -- -- 61
2017-07-30 09:00:00 17.9 10 Oeste 15 Sudoeste 0 -- -- 68
2017-07-30 08:00:00 15.1 8 Oeste 13 Oeste 0 -- -- 76
2017-07-30 07:00:00 15.1 12 Oeste 16 Oeste 0 -- -- 72
2017-07-30 06:00:00 16.1 12 Oeste 17 Oeste 0 -- -- 68
2017-07-30 05:00:00 16.8 10 Sudoeste 22 Oeste 0 -- -- 61
2017-07-30 04:00:00 18.1 15 Oeste 28 Oeste 0 -- -- 54
2017-07-30 03:00:00 19.5 19 Oeste 30 Oeste 0 -- -- 49
2017-07-30 02:00:00 21.9 24 Oeste 34 Noroeste 0 -- -- 44
2017-07-30 01:00:00 22.8 20 Oeste 30 Oeste 0 -- -- 41
2017-07-30 00:00:00 23.7 21 Oeste 31 Oeste 0 -- -- 37
2017-07-29 23:00:00 24.9 20 Oeste 29 Oeste 0 -- -- 35
2017-07-29 22:00:00 26.3 19 Oeste 40 Oeste 0 -- -- 34
2017-07-29 21:00:00 28.9 30 Oeste 42 Oeste 0 -- -- 30
2017-07-29 20:00:00 30.2 29 Oeste 42 Oeste 0 -- -- 29
2017-07-29 19:00:00 31.2 26 Oeste 41 Oeste 0 -- -- 29
2017-07-29 18:00:00 31.9 21 Oeste 40 Oeste 0 -- -- 28
2017-07-29 17:00:00 31 21 Oeste 36 Oeste 0 -- -- 30
2017-07-29 16:00:00 30.2 24 Oeste 39 Noroeste 0 -- -- 34
2017-07-29 15:00:00 29.4 21 Oeste 39 Oeste 0 -- -- 34
2017-07-29 14:00:00 27.6 20 Oeste 33 Oeste 0 -- -- 40
2017-07-29 13:00:00 26.3 18 Oeste 31 Oeste 0 -- -- 44
2017-07-29 12:00:00 23.6 16 Oeste 32 Oeste 0 -- -- 50
2017-07-29 11:00:00 21.8 13 Oeste 22 Oeste 0 -- -- 48
2017-07-29 10:00:00 20.1 15 Oeste 26 Oeste 0 -- -- 47
2017-07-29 09:00:00 18.8 13 Oeste 16 Oeste 0 -- -- 53
2017-07-29 08:00:00 15.9 4 Sudeste 6 Nordeste 0 -- -- 53
2017-07-29 07:00:00 13.4 4 Norte 8 Noroeste 0 -- -- 57
2017-07-29 06:00:00 13.6 8 Oeste 13 Noroeste 0 -- -- 57
2017-07-29 05:00:00 14.7 4 Oeste 19 Este 0 -- -- 55
2017-07-29 04:00:00 16.7 16 Este 24 Este 0 -- -- 51
2017-07-29 03:00:00 17.3 20 Este 23 Este 0 -- -- 51
2017-07-29 02:00:00 17.9 13 Este 19 Este 0 -- -- 52
2017-07-29 01:00:00 20 15 Este 26 Este 0 -- -- 50
2017-07-29 00:00:00 21.9 19 Este 27 Este 0 -- -- 40
2017-07-28 23:00:00 25.7 4 Nordeste 8 Noroeste 0 -- -- 27
2017-07-28 22:00:00 25.5 7 Noroeste 9 Oeste 0 -- -- 25
2017-07-28 21:00:00 28.1 8 Oeste 20 Oeste 0 -- -- 21
2017-07-28 20:00:00 30.4 10 Noroeste 19 Oeste 0 -- -- 19
2017-07-28 19:00:00 31.5 13 Oeste 23 Oeste 0 -- -- 20
2017-07-28 18:00:00 31 14 Oeste 30 Oeste 0 -- -- 19
2017-07-28 17:00:00 31 13 Oeste 33 Oeste 0 -- -- 20
2017-07-28 16:00:00 30.4 15 Oeste 31 Oeste 0 -- -- 25
2017-07-28 15:00:00 29.3 10 Oeste 26 Oeste 0 -- -- 30
2017-07-28 14:00:00 27.5 11 Oeste 23 Oeste 0 -- -- 37
2017-07-28 13:00:00 25.5 9 Noroeste 21 Oeste 0 -- -- 44
2017-07-28 12:00:00 23.2 8 Oeste 22 Oeste 0 -- -- 51
2017-07-28 11:00:00 21.4 4 Oeste 13 Noroeste 0 -- -- 61
2017-07-28 10:00:00 19.6 4 Oeste 11 Noroeste 0 -- -- 78
2017-07-28 09:00:00 17.4 5 Sudeste 10 Sudeste 0 -- -- 90
2017-07-28 08:00:00 14.6 5 Este 8 Nordeste 0 -- -- 99
2017-07-28 07:00:00 13.2 5 Nordeste 6 Nordeste 0 -- -- 99
2017-07-28 06:00:00 14 7 Este 12 Sudeste 0 -- -- 99
2017-07-28 05:00:00 14.5 10 Este 14 Este 0 -- -- 99
2017-07-28 04:00:00 15.2 10 Este 15 Este 0 -- -- 99
2017-07-28 03:00:00 15.9 10 Nordeste 20 Nordeste 0 -- -- 98
2017-07-28 02:00:00 16.7 15 Nordeste 22 Nordeste 0 -- -- 95
2017-07-28 01:00:00 18.1 18 Nordeste 23 Nordeste 0 -- -- 91
2017-07-28 00:00:00 19.7 18 Nordeste 30 Nordeste 0 -- -- 82
2017-07-27 23:00:00 24.3 14 Noroeste 22 Norte 0 -- -- 48
2017-07-27 22:00:00 27.9 19 Oeste 28 Oeste 0 -- -- 32
2017-07-27 21:00:00 30.9 19 Oeste 32 Oeste 0 -- -- 26
2017-07-27 20:00:00 32.4 12 Oeste 30 Noroeste 0 -- -- 25
2017-07-27 19:00:00 32.7 14 Oeste 30 Oeste 0 -- -- 25
2017-07-27 18:00:00 32.5 21 Oeste 35 Sudoeste 0 -- -- 25
2017-07-27 17:00:00 31.9 18 Oeste 39 Noroeste 0 -- -- 25
2017-07-27 16:00:00 31.7 17 Oeste 31 Oeste 0 -- -- 27
2017-07-27 15:00:00 30.1 11 Oeste 30 Oeste 0 -- -- 29
2017-07-27 14:00:00 28.7 16 Oeste 29 Oeste 0 -- -- 31
2017-07-27 13:00:00 27 15 Oeste 25 Oeste 0 -- -- 35
2017-07-27 12:00:00 25.2 11 Oeste 18 Oeste 0 -- -- 45
2017-07-27 11:00:00 22.5 6 Noroeste 13 Noroeste 0 -- -- 57
2017-07-27 10:00:00 21.2 5 Oeste 9 Oeste 0 -- -- 61
2017-07-27 09:00:00 18.6 4 Este 10 Este 0 -- -- 68
2017-07-27 08:00:00 14.7 8 Nordeste 14 Nordeste 0 -- -- 77
2017-07-27 07:00:00 12.5 12 Nordeste 13 Nordeste 0 -- -- 81
2017-07-27 06:00:00 13 7 Nordeste 10 Este 0 -- -- 80
2017-07-27 05:00:00 15.2 10 Este 13 Este 0 -- -- 75
2017-07-27 04:00:00 15.2 10 Nordeste 15 Nordeste 0 -- -- 73
2017-07-27 03:00:00 17.5 10 Este 14 Este 0 -- -- 70
2017-07-27 02:00:00 18.2 13 Este 18 Este 0 -- -- 64
2017-07-27 01:00:00 20.3 13 Este 25 Noroeste 0 -- -- 51
2017-07-27 00:00:00 23.1 8 Sudoeste 10 Sur 0 -- -- 35
2017-07-26 23:00:00 23.6 8 Sudoeste 11 Sur 0 -- -- 34
2017-07-26 22:00:00 25.3 6 Sur 8 Sur 0 -- -- 33
2017-07-26 21:00:00 27.3 3 Sudoeste 12 Noroeste 0 -- -- 31
2017-07-26 20:00:00 29.3 9 Noroeste 23 Noroeste 0 -- -- 29
2017-07-26 19:00:00 29.4 11 Noroeste 23 Norte 0 -- -- 30
2017-07-26 18:00:00 29.2 9 Noroeste 28 Norte 0 -- -- 32
2017-07-26 17:00:00 28.8 10 Noroeste 30 Noroeste 0 -- -- 34
2017-07-26 16:00:00 27.4 6 Noroeste 23 Noroeste 0 -- -- 40
2017-07-26 15:00:00 26.1 8 Noroeste 21 Oeste 0 -- -- 43
2017-07-26 14:00:00 23.9 12 Oeste 23 Oeste 0 -- -- 47
2017-07-26 13:00:00 22.9 7 Oeste 18 Oeste 0 -- -- 50
2017-07-26 12:00:00 20.5 7 Noroeste 14 Noroeste 0 -- -- 55
2017-07-26 11:00:00 18.6 0 Calma 10 Norte 0 -- -- 60
2017-07-26 10:00:00 17.4 4 Este 10 Sudeste 0 -- -- 64
2017-07-26 09:00:00 14.2 4 Noroeste 8 Nordeste 0 -- -- 78
2017-07-26 08:00:00 11.5 3 Sudoeste 8 Este 0 -- -- 89
2017-07-26 07:00:00 10.3 0 Calma 11 Este 0 -- -- 91
2017-07-26 06:00:00 10 7 Nordeste 17 Este 0 -- -- 91
2017-07-26 05:00:00 12.5 15 Este 22 Este 0 -- -- 83
2017-07-26 04:00:00 12.7 19 Este 24 Este 0 -- -- 82
2017-07-26 03:00:00 13 17 Este 23 Este 0 -- -- 80
2017-07-26 02:00:00 13.7 16 Este 28 Este 0 -- -- 75
2017-07-26 01:00:00 14.8 15 Este 32 Este 0 -- -- 69
2017-07-26 00:00:00 16.1 21 Este 33 Este 0 -- -- 60
2017-07-25 23:00:00 16.9 19 Este 31 Este 0 -- -- 53
2017-07-25 22:00:00 18.2 21 Este 31 Nordeste 0 -- -- 49
2017-07-25 21:00:00 20.5 22 Nordeste 30 Nordeste 0 -- -- 44
2017-07-25 20:00:00 22.7 19 Nordeste 30 Nordeste 0 -- -- 43
2017-07-25 19:00:00 23.5 19 Nordeste 30 Nordeste 0 -- -- 42
2017-07-25 18:00:00 24 16 Nordeste 35 Este 0 -- -- 41
2017-07-25 17:00:00 24.7 18 Nordeste 33 Nordeste 0 -- -- 41
2017-07-25 16:00:00 23.5 21 Nordeste 35 Nordeste 0 -- -- 42
2017-07-25 15:00:00 22.4 19 Nordeste 33 Nordeste 0 -- -- 46
2017-07-25 14:00:00 21.3 22 Este 40 Este 0 -- -- 50
2017-07-25 13:00:00 19.8 21 Nordeste 34 Nordeste 0 -- -- 54
2017-07-25 12:00:00 18.5 24 Este 39 Nordeste 0 -- -- 61
2017-07-25 11:00:00 16.4 27 Nordeste 36 Este 0 -- -- 68
2017-07-25 10:00:00 15.4 28 Este 40 Este 0 -- -- 72
2017-07-25 09:00:00 14 26 Este 35 Nordeste 0 -- -- 78
2017-07-25 08:00:00 11.7 22 Este 32 Nordeste 0 -- -- 86
2017-07-25 07:00:00 10.7 24 Este 33 Nordeste 0 -- -- 91
2017-07-25 06:00:00 11 16 Nordeste 23 Nordeste 0 -- -- 92
2017-07-25 05:00:00 11.3 16 Este 28 Nordeste 0 -- -- 91
2017-07-25 04:00:00 11.7 21 Este 35 Este 0 -- -- 90
2017-07-25 03:00:00 12.1 24 Este 33 Este 0 -- -- 89
2017-07-25 02:00:00 12.5 25 Este 31 Este 0 -- -- 89
2017-07-25 01:00:00 13 25 Este 38 Este 0 -- -- 88
2017-07-25 00:00:00 13.8 28 Este 39 Este 0 -- -- 83
2017-07-24 23:00:00 14.8 33 Este 45 Este 0 -- -- 77
2017-07-24 22:00:00 16.9 28 Este 41 Este 0 -- -- 68
2017-07-24 21:00:00 20.4 26 Este 35 Nordeste 0 -- -- 54
2017-07-24 20:00:00 23.6 23 Este 35 Nordeste 0 -- -- 46
2017-07-24 19:00:00 26.7 20 Noroeste 29 Norte 0 -- -- 34
2017-07-24 18:00:00 27.6 14 Noroeste 31 Noroeste 0 -- -- 32
2017-07-24 17:00:00 27.2 8 Noroeste 34 Noroeste 0 -- -- 34
2017-07-24 16:00:00 25.7 9 Norte 26 Oeste 0 -- -- 36
2017-07-24 15:00:00 24.7 10 Norte 24 Norte 0 -- -- 40
2017-07-24 14:00:00 23.4 9 Norte 23 Norte 0 -- -- 46
2017-07-24 13:00:00 22.2 10 Noroeste 21 Noroeste 0 -- -- 52
2017-07-24 12:00:00 20.4 3 Noroeste 23 Nordeste 0 -- -- 60
2017-07-24 11:00:00 18.9 5 Noroeste 12 Oeste 0 -- -- 71
2017-07-24 10:00:00 17.7 3 Sudoeste 9 Sudoeste 0 -- -- 78
2017-07-24 09:00:00 16.6 3 Sudeste 6 Este 0 -- -- 88
2017-07-24 08:00:00 13.8 0 Calma 4 Sudeste 0 -- -- 99
2017-07-24 07:00:00 12.1 0 Calma 7 Norte 0 -- -- 99
2017-07-24 06:00:00 12.6 8 Este 13 Este 0 -- -- 99
2017-07-24 05:00:00 13.3 10 Este 14 Este 0 -- -- 98
2017-07-24 04:00:00 13.7 10 Este 13 Este 0 -- -- 97
2017-07-24 03:00:00 14 8 Nordeste 28 Este 0 -- -- 94
2017-07-24 02:00:00 15.2 21 Este 27 Este 0 -- -- 89
2017-07-24 01:00:00 16 19 Este 29 Nordeste 0 -- -- 82
2017-07-24 00:00:00 16.7 22 Nordeste 42 Nordeste 0 -- -- 79
2017-07-23 23:00:00 19.2 26 Nordeste 37 Nordeste 0 -- -- 65
2017-07-23 22:00:00 23 10 Noroeste 19 Noroeste 0 -- -- 40
2017-07-23 21:00:00 26.9 11 Noroeste 28 Noroeste 0 -- -- 34
2017-07-23 20:00:00 27.5 20 Noroeste 33 Oeste 0 -- -- 33
2017-07-23 19:00:00 28.5 12 Noroeste 45 Oeste 0 -- -- 32
2017-07-23 18:00:00 28 14 Noroeste 26 Noroeste 0 -- -- 32
2017-07-23 17:00:00 27.2 12 Noroeste 30 Noroeste 0 -- -- 34
2017-07-23 16:00:00 26.7 9 Noroeste 22 Noroeste 0 -- -- 37
2017-07-23 15:00:00 25.1 8 Noroeste 23 Noroeste 0 -- -- 39
2017-07-23 14:00:00 23.7 8 Noroeste 21 Norte 0 -- -- 40
2017-07-23 13:00:00 22.9 8 Nordeste 22 Nordeste 0 -- -- 46
2017-07-23 12:00:00 20.8 10 Norte 22 Nordeste 0 -- -- 53
2017-07-23 11:00:00 17.9 16 Nordeste 23 Nordeste 0 -- -- 67
2017-07-23 10:00:00 16 13 Nordeste 21 Este 0 -- -- 81
2017-07-23 09:00:00 13.3 13 Nordeste 21 Este 0 -- -- 93
2017-07-23 08:00:00 11.9 13 Este 21 Este 0 -- -- 99
2017-07-23 07:00:00 10.7 13 Nordeste 18 Nordeste 0 -- -- 99
2017-07-23 06:00:00 11.3 13 Este 21 Este 0 -- -- 99
2017-07-23 05:00:00 11.7 13 Nordeste 21 Nordeste 0 -- -- 99
2017-07-23 04:00:00 12.1 15 Este 24 Este 0 -- -- 98
2017-07-23 03:00:00 12.3 16 Este 25 Este 0 -- -- 97
2017-07-23 02:00:00 12.9 22 Nordeste 32 Este 0 -- -- 95
2017-07-23 01:00:00 13.8 22 Nordeste 31 Nordeste 0 -- -- 91
2017-07-23 00:00:00 15.4 22 Nordeste 29 Nordeste 0 -- -- 85